New Sight, Mississippi
Current Conditions -  °F | °C
As of 2:15 AM on Monday 26 Jan 2015 (Local Time) from K1R7 Reporting Station
Clear Clear  
Wind Chill: 43°   Ceiling: Unl
Heat Index: 48°   Visibility: NA
Dew Point: 34°   Wind: 12mph
Humidity: 57%   Direction: 300°WNW
Pressure: 30.04"   Gusts: NA
Location:  31.5898°N, 90.4722°W
Report Text: K1R7 260815Z AUTO 30010KT CLR 09/01 A3004 RMK AO2
Loading
Personal Weather Stations






























Interactive Weather Map New forecast layout! Learn more

10-Day Weather Forecast

Advertisements
Track Severe Weather on mobile